Terminal Aerodrome Forecast
Issued by NWS Portland, OR

Home | Current Version | Previous Version | Text Only | Print | Product List | Glossary On
Versions: 1 2 3 4 5 6 7 8 9 10 11 12 13 14 15 16 17 18
000
FTUS46 KPQR 240530
TAFTTD
TAF
KTTD 240530Z 2406/2506 09005KT P6SM -RA SCT015 BKN025 OVC040
     FM240700 13007KT 4SM RA BR BKN020 OVC035
     FM241300 22010KT P6SM -SHRA BKN025 OVC045
     FM250100 24006KT P6SM -SHRA SCT025 BKN040 BKN060=

USA.gov is the U.S. government's official web portal to all federal, state and local government web resources and services.